sensor_id;sensor_type;location;lat;lon;timestamp;P1;durP1;ratioP1;P2;durP2;ratioP2
16436;SDS011;8328;52.206;21.006;2023-05-15T00:00:34;5.37;;;3.67;;
16436;SDS011;8328;52.206;21.006;2023-05-15T00:03:01;4.53;;;3.33;;
16436;SDS011;8328;52.206;21.006;2023-05-15T00:05:27;5.67;;;3.40;;
16436;SDS011;8328;52.206;21.006;2023-05-15T00:07:53;6.43;;;3.50;;
16436;SDS011;8328;52.206;21.006;2023-05-15T00:10:19;8.63;;;3.53;;
16436;SDS011;8328;52.206;21.006;2023-05-15T00:12:45;4.80;;;3.80;;
16436;SDS011;8328;52.206;21.006;2023-05-15T00:15:11;5.73;;;3.57;;
16436;SDS011;8328;52.206;21.006;2023-05-15T00:17:37;5.03;;;3.73;;
16436;SDS011;8328;52.206;21.006;2023-05-15T00:20:02;5.47;;;3.27;;
16436;SDS011;8328;52.206;21.006;2023-05-15T00:22:29;4.60;;;2.83;;
16436;SDS011;8328;52.206;21.006;2023-05-15T00:24:55;4.23;;;3.40;;
16436;SDS011;8328;52.206;21.006;2023-05-15T00:27:20;6.00;;;3.00;;
16436;SDS011;8328;52.206;21.006;2023-05-15T00:29:46;4.87;;;3.50;;
16436;SDS011;8328;52.206;21.006;2023-05-15T00:32:12;5.50;;;3.50;;
16436;SDS011;8328;52.206;21.006;2023-05-15T00:34:38;3.30;;;2.83;;
16436;SDS011;8328;52.206;21.006;2023-05-15T00:37:03;11.17;;;3.60;;
16436;SDS011;8328;52.206;21.006;2023-05-15T00:39:29;4.47;;;3.27;;
16436;SDS011;8328;52.206;21.006;2023-05-15T00:41:55;4.23;;;3.27;;
16436;SDS011;8328;52.206;21.006;2023-05-15T00:44:23;3.80;;;2.93;;
16436;SDS011;8328;52.206;21.006;2023-05-15T00:46:51;6.90;;;3.50;;
16436;SDS011;8328;52.206;21.006;2023-05-15T00:49:18;4.27;;;3.17;;
16436;SDS011;8328;52.206;21.006;2023-05-15T00:51:46;3.80;;;3.20;;
16436;SDS011;8328;52.206;21.006;2023-05-15T00:54:12;5.33;;;3.10;;
16436;SDS011;8328;52.206;21.006;2023-05-15T00:56:38;4.87;;;3.20;;
16436;SDS011;8328;52.206;21.006;2023-05-15T00:59:06;3.80;;;2.93;;
16436;SDS011;8328;52.206;21.006;2023-05-15T01:01:32;4.57;;;2.90;;
16436;SDS011;8328;52.206;21.006;2023-05-15T01:03:59;4.30;;;3.27;;
16436;SDS011;8328;52.206;21.006;2023-05-15T01:06:28;4.30;;;2.97;;
16436;SDS011;8328;52.206;21.006;2023-05-15T01:08:55;3.93;;;2.80;;
16436;SDS011;8328;52.206;21.006;2023-05-15T01:11:26;3.60;;;3.20;;
16436;SDS011;8328;52.206;21.006;2023-05-15T01:14:00;3.33;;;2.77;;
16436;SDS011;8328;52.206;21.006;2023-05-15T01:16:28;5.63;;;3.10;;
16436;SDS011;8328;52.206;21.006;2023-05-15T01:18:54;5.30;;;2.97;;
16436;SDS011;8328;52.206;21.006;2023-05-15T01:27:13;4.77;;;2.93;;
16436;SDS011;8328;52.206;21.006;2023-05-15T01:35:09;3.77;;;2.97;;
16436;SDS011;8328;52.206;21.006;2023-05-15T01:37:50;4.47;;;2.73;;
16436;SDS011;8328;52.206;21.006;2023-05-15T01:40:23;5.07;;;2.93;;
16436;SDS011;8328;52.206;21.006;2023-05-15T01:42:55;4.57;;;3.10;;
16436;SDS011;8328;52.206;21.006;2023-05-15T01:45:27;5.23;;;3.37;;
16436;SDS011;8328;52.206;21.006;2023-05-15T01:47:54;4.57;;;2.97;;
16436;SDS011;8328;52.206;21.006;2023-05-15T01:50:20;4.53;;;3.30;;
16436;SDS011;8328;52.206;21.006;2023-05-15T01:52:48;6.17;;;3.03;;
16436;SDS011;8328;52.206;21.006;2023-05-15T01:55:22;5.70;;;3.13;;
16436;SDS011;8328;52.206;21.006;2023-05-15T01:57:51;4.40;;;3.37;;
16436;SDS011;8328;52.206;21.006;2023-05-15T02:00:17;3.80;;;3.00;;
16436;SDS011;8328;52.206;21.006;2023-05-15T02:02:45;6.20;;;3.17;;
16436;SDS011;8328;52.206;21.006;2023-05-15T02:05:11;5.53;;;3.10;;
16436;SDS011;8328;52.206;21.006;2023-05-15T02:07:39;4.77;;;2.80;;
16436;SDS011;8328;52.206;21.006;2023-05-15T02:10:08;3.77;;;2.77;;
16436;SDS011;8328;52.206;21.006;2023-05-15T02:12:35;5.33;;;3.23;;
16436;SDS011;8328;52.206;21.006;2023-05-15T02:15:02;3.67;;;2.90;;
16436;SDS011;8328;52.206;21.006;2023-05-15T02:17:28;5.13;;;2.97;;
16436;SDS011;8328;52.206;21.006;2023-05-15T02:19:55;4.43;;;2.90;;
16436;SDS011;8328;52.206;21.006;2023-05-15T02:22:20;5.40;;;3.10;;
16436;SDS011;8328;52.206;21.006;2023-05-15T02:24:46;3.70;;;2.73;;
16436;SDS011;8328;52.206;21.006;2023-05-15T02:27:15;6.73;;;3.40;;
16436;SDS011;8328;52.206;21.006;2023-05-15T02:29:50;4.00;;;3.20;;
16436;SDS011;8328;52.206;21.006;2023-05-15T02:32:32;5.50;;;3.27;;
16436;SDS011;8328;52.206;21.006;2023-05-15T02:37:40;5.00;;;3.10;;
16436;SDS011;8328;52.206;21.006;2023-05-15T02:40:10;3.57;;;2.77;;
16436;SDS011;8328;52.206;21.006;2023-05-15T02:42:39;4.10;;;3.13;;
16436;SDS011;8328;52.206;21.006;2023-05-15T02:45:06;4.33;;;2.80;;
16436;SDS011;8328;52.206;21.006;2023-05-15T02:47:34;4.50;;;2.80;;
16436;SDS011;8328;52.206;21.006;2023-05-15T02:50:01;5.97;;;3.00;;
16436;SDS011;8328;52.206;21.006;2023-05-15T02:52:28;4.77;;;3.10;;
16436;SDS011;8328;52.206;21.006;2023-05-15T02:54:54;3.13;;;2.80;;
16436;SDS011;8328;52.206;21.006;2023-05-15T02:57:20;5.57;;;2.87;;
16436;SDS011;8328;52.206;21.006;2023-05-15T02:59:45;5.30;;;2.80;;
16436;SDS011;8328;52.206;21.006;2023-05-15T03:02:11;4.60;;;3.20;;
16436;SDS011;8328;52.206;21.006;2023-05-15T03:04:37;21.30;;;3.77;;
16436;SDS011;8328;52.206;21.006;2023-05-15T03:07:03;4.17;;;3.17;;
16436;SDS011;8328;52.206;21.006;2023-05-15T03:09:29;5.23;;;3.30;;
16436;SDS011;8328;52.206;21.006;2023-05-15T03:11:55;4.63;;;3.00;;
16436;SDS011;8328;52.206;21.006;2023-05-15T03:14:21;5.20;;;3.00;;
16436;SDS011;8328;52.206;21.006;2023-05-15T03:16:48;5.97;;;3.27;;
16436;SDS011;8328;52.206;21.006;2023-05-15T03:19:14;4.80;;;2.80;;
16436;SDS011;8328;52.206;21.006;2023-05-15T03:21:40;3.60;;;3.07;;
16436;SDS011;8328;52.206;21.006;2023-05-15T03:24:06;5.03;;;3.00;;
16436;SDS011;8328;52.206;21.006;2023-05-15T03:26:31;5.20;;;3.30;;
16436;SDS011;8328;52.206;21.006;2023-05-15T03:28:57;4.00;;;2.70;;
16436;SDS011;8328;52.206;21.006;2023-05-15T03:31:25;5.13;;;3.00;;
16436;SDS011;8328;52.206;21.006;2023-05-15T03:33:52;5.07;;;2.83;;
16436;SDS011;8328;52.206;21.006;2023-05-15T03:36:18;5.07;;;3.10;;
16436;SDS011;8328;52.206;21.006;2023-05-15T03:38:44;3.90;;;3.00;;
16436;SDS011;8328;52.206;21.006;2023-05-15T03:41:09;5.57;;;3.30;;
16436;SDS011;8328;52.206;21.006;2023-05-15T03:43:35;5.23;;;3.20;;
16436;SDS011;8328;52.206;21.006;2023-05-15T03:46:01;5.93;;;3.30;;
16436;SDS011;8328;52.206;21.006;2023-05-15T03:48:27;3.47;;;3.17;;
16436;SDS011;8328;52.206;21.006;2023-05-15T03:50:52;5.47;;;3.40;;
16436;SDS011;8328;52.206;21.006;2023-05-15T03:53:18;5.90;;;3.10;;
16436;SDS011;8328;52.206;21.006;2023-05-15T03:55:44;4.07;;;3.00;;
16436;SDS011;8328;52.206;21.006;2023-05-15T03:58:10;4.90;;;3.37;;
16436;SDS011;8328;52.206;21.006;2023-05-15T04:00:35;5.30;;;3.33;;
16436;SDS011;8328;52.206;21.006;2023-05-15T04:03:01;5.43;;;3.30;;
16436;SDS011;8328;52.206;21.006;2023-05-15T04:05:27;4.57;;;3.27;;
16436;SDS011;8328;52.206;21.006;2023-05-15T04:07:53;5.90;;;3.23;;
16436;SDS011;8328;52.206;21.006;2023-05-15T04:10:19;5.00;;;3.00;;
16436;SDS011;8328;52.206;21.006;2023-05-15T04:12:44;3.53;;;3.17;;
16436;SDS011;8328;52.206;21.006;2023-05-15T04:15:21;5.27;;;3.10;;
16436;SDS011;8328;52.206;21.006;2023-05-15T04:17:51;6.20;;;3.00;;
16436;SDS011;8328;52.206;21.006;2023-05-15T04:20:18;4.20;;;3.53;;
16436;SDS011;8328;52.206;21.006;2023-05-15T04:22:46;5.83;;;2.97;;
16436;SDS011;8328;52.206;21.006;2023-05-15T04:25:12;6.80;;;3.70;;
16436;SDS011;8328;52.206;21.006;2023-05-15T04:27:42;5.97;;;3.63;;
16436;SDS011;8328;52.206;21.006;2023-05-15T04:30:09;8.63;;;3.57;;
16436;SDS011;8328;52.206;21.006;2023-05-15T04:32:36;3.50;;;3.20;;
16436;SDS011;8328;52.206;21.006;2023-05-15T04:35:03;6.57;;;3.20;;
16436;SDS011;8328;52.206;21.006;2023-05-15T04:37:29;4.53;;;3.10;;
16436;SDS011;8328;52.206;21.006;2023-05-15T04:39:55;4.47;;;3.30;;
16436;SDS011;8328;52.206;21.006;2023-05-15T04:42:21;5.47;;;2.90;;
16436;SDS011;8328;52.206;21.006;2023-05-15T04:44:47;4.50;;;3.20;;
16436;SDS011;8328;52.206;21.006;2023-05-15T04:47:13;4.97;;;3.03;;
16436;SDS011;8328;52.206;21.006;2023-05-15T04:49:39;4.30;;;3.90;;
16436;SDS011;8328;52.206;21.006;2023-05-15T04:52:05;7.97;;;3.60;;
16436;SDS011;8328;52.206;21.006;2023-05-15T04:54:32;3.77;;;3.30;;
16436;SDS011;8328;52.206;21.006;2023-05-15T04:56:57;4.90;;;3.13;;
16436;SDS011;8328;52.206;21.006;2023-05-15T04:59:23;5.80;;;3.37;;
16436;SDS011;8328;52.206;21.006;2023-05-15T05:01:52;5.00;;;3.30;;
16436;SDS011;8328;52.206;21.006;2023-05-15T05:04:18;6.27;;;3.20;;
16436;SDS011;8328;52.206;21.006;2023-05-15T05:06:47;7.70;;;3.67;;
16436;SDS011;8328;52.206;21.006;2023-05-15T05:09:13;7.27;;;3.60;;
16436;SDS011;8328;52.206;21.006;2023-05-15T05:11:39;3.90;;;3.07;;
16436;SDS011;8328;52.206;21.006;2023-05-15T05:14:11;6.53;;;3.40;;
16436;SDS011;8328;52.206;21.006;2023-05-15T05:16:40;5.27;;;3.13;;
16436;SDS011;8328;52.206;21.006;2023-05-15T05:19:08;3.03;;;2.73;;
16436;SDS011;8328;52.206;21.006;2023-05-15T05:21:34;5.47;;;3.70;;
16436;SDS011;8328;52.206;21.006;2023-05-15T05:23:59;5.43;;;3.27;;
16436;SDS011;8328;52.206;21.006;2023-05-15T05:26:26;4.23;;;3.03;;
16436;SDS011;8328;52.206;21.006;2023-05-15T05:28:52;3.80;;;2.87;;
16436;SDS011;8328;52.206;21.006;2023-05-15T05:31:19;5.27;;;3.27;;
16436;SDS011;8328;52.206;21.006;2023-05-15T05:33:45;6.27;;;3.10;;
16436;SDS011;8328;52.206;21.006;2023-05-15T05:36:11;7.67;;;3.20;;
16436;SDS011;8328;52.206;21.006;2023-05-15T05:38:36;6.70;;;3.13;;
16436;SDS011;8328;52.206;21.006;2023-05-15T05:41:02;5.20;;;3.50;;
16436;SDS011;8328;52.206;21.006;2023-05-15T05:43:28;5.50;;;3.40;;
16436;SDS011;8328;52.206;21.006;2023-05-15T05:45:55;7.83;;;3.27;;
16436;SDS011;8328;52.206;21.006;2023-05-15T05:48:21;7.07;;;3.10;;
16436;SDS011;8328;52.206;21.006;2023-05-15T05:50:46;4.37;;;3.03;;
16436;SDS011;8328;52.206;21.006;2023-05-15T05:53:12;5.33;;;3.50;;
16436;SDS011;8328;52.206;21.006;2023-05-15T05:55:38;7.30;;;3.10;;
16436;SDS011;8328;52.206;21.006;2023-05-15T05:58:08;10.50;;;4.97;;
16436;SDS011;8328;52.206;21.006;2023-05-15T06:00:34;6.07;;;3.77;;
16436;SDS011;8328;52.206;21.006;2023-05-15T06:03:00;4.77;;;3.60;;
16436;SDS011;8328;52.206;21.006;2023-05-15T06:05:26;4.40;;;3.40;;
16436;SDS011;8328;52.206;21.006;2023-05-15T06:07:53;5.63;;;4.60;;
16436;SDS011;8328;52.206;21.006;2023-05-15T06:10:19;4.17;;;3.17;;
16436;SDS011;8328;52.206;21.006;2023-05-15T06:12:46;4.53;;;3.30;;
16436;SDS011;8328;52.206;21.006;2023-05-15T06:15:13;7.63;;;4.90;;
16436;SDS011;8328;52.206;21.006;2023-05-15T06:17:40;4.40;;;3.53;;
16436;SDS011;8328;52.206;21.006;2023-05-15T06:20:06;4.47;;;3.37;;
16436;SDS011;8328;52.206;21.006;2023-05-15T06:22:36;4.27;;;3.60;;
16436;SDS011;8328;52.206;21.006;2023-05-15T06:25:03;4.83;;;3.20;;
16436;SDS011;8328;52.206;21.006;2023-05-15T06:27:30;5.67;;;3.30;;
16436;SDS011;8328;52.206;21.006;2023-05-15T06:29:58;6.27;;;3.43;;
16436;SDS011;8328;52.206;21.006;2023-05-15T06:32:24;8.20;;;3.50;;
16436;SDS011;8328;52.206;21.006;2023-05-15T06:34:50;4.50;;;3.80;;
16436;SDS011;8328;52.206;21.006;2023-05-15T06:37:16;8.83;;;4.17;;
16436;SDS011;8328;52.206;21.006;2023-05-15T06:39:42;5.50;;;4.23;;
16436;SDS011;8328;52.206;21.006;2023-05-15T06:42:07;7.57;;;4.77;;
16436;SDS011;8328;52.206;21.006;2023-05-15T06:44:33;7.13;;;3.83;;
16436;SDS011;8328;52.206;21.006;2023-05-15T06:47:01;6.50;;;4.93;;
16436;SDS011;8328;52.206;21.006;2023-05-15T06:49:27;5.57;;;3.80;;
16436;SDS011;8328;52.206;21.006;2023-05-15T06:51:53;7.67;;;4.20;;
16436;SDS011;8328;52.206;21.006;2023-05-15T06:54:19;10.57;;;7.97;;
16436;SDS011;8328;52.206;21.006;2023-05-15T06:56:46;9.53;;;5.80;;
16436;SDS011;8328;52.206;21.006;2023-05-15T06:59:13;5.37;;;4.43;;
16436;SDS011;8328;52.206;21.006;2023-05-15T07:01:39;7.00;;;4.63;;
16436;SDS011;8328;52.206;21.006;2023-05-15T07:04:05;7.17;;;6.10;;
16436;SDS011;8328;52.206;21.006;2023-05-15T07:06:31;7.13;;;4.53;;
16436;SDS011;8328;52.206;21.006;2023-05-15T07:08:57;11.40;;;8.37;;
16436;SDS011;8328;52.206;21.006;2023-05-15T07:11:24;9.70;;;8.40;;
16436;SDS011;8328;52.206;21.006;2023-05-15T07:13:50;10.30;;;7.20;;
16436;SDS011;8328;52.206;21.006;2023-05-15T07:16:17;11.97;;;7.13;;
16436;SDS011;8328;52.206;21.006;2023-05-15T07:18:43;8.93;;;5.67;;
16436;SDS011;8328;52.206;21.006;2023-05-15T07:21:08;10.43;;;7.33;;
16436;SDS011;8328;52.206;21.006;2023-05-15T07:23:34;12.87;;;7.80;;
16436;SDS011;8328;52.206;21.006;2023-05-15T07:26:01;6.83;;;5.13;;
16436;SDS011;8328;52.206;21.006;2023-05-15T07:28:27;8.17;;;5.20;;
16436;SDS011;8328;52.206;21.006;2023-05-15T07:30:53;11.60;;;5.80;;
16436;SDS011;8328;52.206;21.006;2023-05-15T07:33:19;10.13;;;6.40;;
16436;SDS011;8328;52.206;21.006;2023-05-15T07:35:44;12.33;;;7.23;;
16436;SDS011;8328;52.206;21.006;2023-05-15T07:38:12;6.87;;;6.17;;
16436;SDS011;8328;52.206;21.006;2023-05-15T07:40:38;7.93;;;6.23;;
16436;SDS011;8328;52.206;21.006;2023-05-15T07:43:04;10.83;;;6.23;;
16436;SDS011;8328;52.206;21.006;2023-05-15T07:45:29;8.00;;;5.70;;
16436;SDS011;8328;52.206;21.006;2023-05-15T07:47:55;7.57;;;6.70;;
16436;SDS011;8328;52.206;21.006;2023-05-15T07:50:22;11.80;;;6.67;;
16436;SDS011;8328;52.206;21.006;2023-05-15T07:52:48;8.20;;;6.60;;
16436;SDS011;8328;52.206;21.006;2023-05-15T07:55:14;8.87;;;5.50;;
16436;SDS011;8328;52.206;21.006;2023-05-15T09:01:25;10.50;;;8.10;;
16436;SDS011;8328;52.206;21.006;2023-05-15T09:03:52;10.93;;;7.83;;
16436;SDS011;8328;52.206;21.006;2023-05-15T09:06:17;9.37;;;7.27;;
16436;SDS011;8328;52.206;21.006;2023-05-15T09:08:44;9.83;;;7.33;;
16436;SDS011;8328;52.206;21.006;2023-05-15T09:11:11;9.80;;;7.40;;
16436;SDS011;8328;52.206;21.006;2023-05-15T09:13:37;11.93;;;10.27;;
16436;SDS011;8328;52.206;21.006;2023-05-15T09:16:03;10.03;;;8.00;;
16436;SDS011;8328;52.206;21.006;2023-05-15T09:18:31;11.90;;;7.60;;
16436;SDS011;8328;52.206;21.006;2023-05-15T09:21:03;9.30;;;7.37;;
16436;SDS011;8328;52.206;21.006;2023-05-15T09:23:53;14.23;;;9.90;;
16436;SDS011;8328;52.206;21.006;2023-05-15T09:26:20;8.57;;;7.07;;
16436;SDS011;8328;52.206;21.006;2023-05-15T09:28:48;9.77;;;7.67;;
16436;SDS011;8328;52.206;21.006;2023-05-15T09:31:17;8.13;;;7.30;;
16436;SDS011;8328;52.206;21.006;2023-05-15T09:33:43;8.10;;;7.30;;
16436;SDS011;8328;52.206;21.006;2023-05-15T09:36:09;8.57;;;7.30;;
16436;SDS011;8328;52.206;21.006;2023-05-15T09:38:41;8.30;;;6.80;;
16436;SDS011;8328;52.206;21.006;2023-05-15T09:41:11;9.43;;;6.87;;
16436;SDS011;8328;52.206;21.006;2023-05-15T09:43:37;7.73;;;7.03;;
16436;SDS011;8328;52.206;21.006;2023-05-15T09:46:04;8.37;;;7.03;;
16436;SDS011;8328;52.206;21.006;2023-05-15T09:48:31;9.70;;;7.17;;
16436;SDS011;8328;52.206;21.006;2023-05-15T09:50:57;9.83;;;8.63;;
16436;SDS011;8328;52.206;21.006;2023-05-15T09:53:23;8.87;;;6.70;;
16436;SDS011;8328;52.206;21.006;2023-05-15T09:55:49;8.87;;;7.93;;
16436;SDS011;8328;52.206;21.006;2023-05-15T09:58:17;8.90;;;7.00;;
16436;SDS011;8328;52.206;21.006;2023-05-15T10:00:44;10.07;;;6.50;;
16436;SDS011;8328;52.206;21.006;2023-05-15T10:03:11;7.93;;;7.13;;
16436;SDS011;8328;52.206;21.006;2023-05-15T10:05:37;9.93;;;6.40;;
16436;SDS011;8328;52.206;21.006;2023-05-15T10:08:04;9.60;;;7.23;;
16436;SDS011;8328;52.206;21.006;2023-05-15T10:10:30;8.33;;;7.50;;
16436;SDS011;8328;52.206;21.006;2023-05-15T10:12:57;9.53;;;7.00;;
16436;SDS011;8328;52.206;21.006;2023-05-15T10:15:25;8.23;;;6.33;;
16436;SDS011;8328;52.206;21.006;2023-05-15T10:17:52;7.73;;;6.83;;
16436;SDS011;8328;52.206;21.006;2023-05-15T10:20:19;7.90;;;7.10;;
16436;SDS011;8328;52.206;21.006;2023-05-15T10:22:51;7.80;;;6.73;;
16436;SDS011;8328;52.206;21.006;2023-05-15T10:28:10;9.00;;;7.07;;
16436;SDS011;8328;52.206;21.006;2023-05-15T10:30:36;9.73;;;8.47;;
16436;SDS011;8328;52.206;21.006;2023-05-15T10:33:03;8.20;;;7.40;;
16436;SDS011;8328;52.206;21.006;2023-05-15T10:35:30;8.07;;;7.30;;
16436;SDS011;8328;52.206;21.006;2023-05-15T10:37:57;7.93;;;7.03;;
16436;SDS011;8328;52.206;21.006;2023-05-15T10:40:23;7.20;;;6.40;;
16436;SDS011;8328;52.206;21.006;2023-05-15T10:42:49;9.67;;;6.73;;
16436;SDS011;8328;52.206;21.006;2023-05-15T10:45:16;8.57;;;7.67;;
16436;SDS011;8328;52.206;21.006;2023-05-15T10:47:43;10.60;;;7.23;;
16436;SDS011;8328;52.206;21.006;2023-05-15T10:50:11;10.47;;;7.80;;
16436;SDS011;8328;52.206;21.006;2023-05-15T10:52:37;9.00;;;7.73;;
16436;SDS011;8328;52.206;21.006;2023-05-15T10:55:07;8.00;;;7.07;;
16436;SDS011;8328;52.206;21.006;2023-05-15T10:57:38;8.10;;;6.97;;
16436;SDS011;8328;52.206;21.006;2023-05-15T11:00:22;14.37;;;12.97;;
16436;SDS011;8328;52.206;21.006;2023-05-15T11:02:50;8.73;;;7.73;;
16436;SDS011;8328;52.206;21.006;2023-05-15T11:05:20;8.40;;;7.60;;
16436;SDS011;8328;52.206;21.006;2023-05-15T11:10:51;9.13;;;8.17;;
16436;SDS011;8328;52.206;21.006;2023-05-15T11:13:18;9.47;;;8.57;;
16436;SDS011;8328;52.206;21.006;2023-05-15T11:15:45;7.73;;;6.90;;
16436;SDS011;8328;52.206;21.006;2023-05-15T11:18:11;9.73;;;7.13;;
16436;SDS011;8328;52.206;21.006;2023-05-15T11:23:36;8.80;;;7.20;;
16436;SDS011;8328;52.206;21.006;2023-05-15T11:26:03;8.80;;;7.77;;
16436;SDS011;8328;52.206;21.006;2023-05-15T11:28:29;7.83;;;6.83;;
16436;SDS011;8328;52.206;21.006;2023-05-15T11:31:05;7.90;;;7.10;;
16436;SDS011;8328;52.206;21.006;2023-05-15T11:33:30;7.70;;;6.87;;
16436;SDS011;8328;52.206;21.006;2023-05-15T11:35:57;8.50;;;7.70;;
16436;SDS011;8328;52.206;21.006;2023-05-15T11:38:24;12.23;;;10.73;;
16436;SDS011;8328;52.206;21.006;2023-05-15T11:40:57;7.17;;;6.53;;
16436;SDS011;8328;52.206;21.006;2023-05-15T11:43:30;8.83;;;7.33;;
16436;SDS011;8328;52.206;21.006;2023-05-15T11:46:02;6.47;;;5.83;;
16436;SDS011;8328;52.206;21.006;2023-05-15T11:48:31;7.60;;;6.47;;
16436;SDS011;8328;52.206;21.006;2023-05-15T11:51:22;7.23;;;6.53;;
16436;SDS011;8328;52.206;21.006;2023-05-15T11:53:52;10.07;;;7.00;;
16436;SDS011;8328;52.206;21.006;2023-05-15T11:56:19;7.43;;;6.73;;
16436;SDS011;8328;52.206;21.006;2023-05-15T11:58:47;8.63;;;7.80;;
16436;SDS011;8328;52.206;21.006;2023-05-15T12:01:13;8.93;;;7.33;;
16436;SDS011;8328;52.206;21.006;2023-05-15T12:03:40;8.00;;;7.30;;
16436;SDS011;8328;52.206;21.006;2023-05-15T12:06:06;7.57;;;6.87;;
16436;SDS011;8328;52.206;21.006;2023-05-15T12:08:34;7.67;;;6.83;;
16436;SDS011;8328;52.206;21.006;2023-05-15T12:11:02;7.87;;;7.07;;
16436;SDS011;8328;52.206;21.006;2023-05-15T12:13:29;7.80;;;6.90;;
16436;SDS011;8328;52.206;21.006;2023-05-15T12:15:56;8.77;;;6.80;;
16436;SDS011;8328;52.206;21.006;2023-05-15T12:18:22;6.83;;;6.20;;
16436;SDS011;8328;52.206;21.006;2023-05-15T12:20:50;8.07;;;7.27;;
16436;SDS011;8328;52.206;21.006;2023-05-15T12:23:17;7.77;;;6.90;;
16436;SDS011;8328;52.206;21.006;2023-05-15T12:25:45;7.87;;;7.07;;
16436;SDS011;8328;52.206;21.006;2023-05-15T12:28:13;7.53;;;6.70;;
16436;SDS011;8328;52.206;21.006;2023-05-15T12:30:39;7.50;;;6.80;;
16436;SDS011;8328;52.206;21.006;2023-05-15T12:33:07;7.23;;;6.60;;
16436;SDS011;8328;52.206;21.006;2023-05-15T12:35:41;8.30;;;7.17;;
16436;SDS011;8328;52.206;21.006;2023-05-15T12:38:08;8.20;;;6.87;;
16436;SDS011;8328;52.206;21.006;2023-05-15T12:40:39;11.20;;;7.37;;
16436;SDS011;8328;52.206;21.006;2023-05-15T12:43:05;10.87;;;9.60;;
16436;SDS011;8328;52.206;21.006;2023-05-15T12:45:31;7.20;;;6.40;;
16436;SDS011;8328;52.206;21.006;2023-05-15T12:48:00;8.67;;;7.17;;
16436;SDS011;8328;52.206;21.006;2023-05-15T12:50:26;7.50;;;6.80;;
16436;SDS011;8328;52.206;21.006;2023-05-15T12:53:00;7.57;;;6.87;;
16436;SDS011;8328;52.206;21.006;2023-05-15T12:55:28;7.90;;;7.20;;
16436;SDS011;8328;52.206;21.006;2023-05-15T12:57:59;8.70;;;7.80;;
16436;SDS011;8328;52.206;21.006;2023-05-15T13:00:32;8.50;;;7.70;;
16436;SDS011;8328;52.206;21.006;2023-05-15T13:03:01;8.43;;;7.63;;
16436;SDS011;8328;52.206;21.006;2023-05-15T13:05:28;8.77;;;7.90;;
16436;SDS011;8328;52.206;21.006;2023-05-15T13:08:01;9.73;;;8.73;;
16436;SDS011;8328;52.206;21.006;2023-05-15T13:10:30;8.90;;;8.00;;
16436;SDS011;8328;52.206;21.006;2023-05-15T13:12:57;9.20;;;8.40;;
16436;SDS011;8328;52.206;21.006;2023-05-15T13:20:29;9.10;;;8.03;;
16436;SDS011;8328;52.206;21.006;2023-05-15T13:23:01;8.73;;;7.93;;
16436;SDS011;8328;52.206;21.006;2023-05-15T13:25:27;10.80;;;9.00;;
16436;SDS011;8328;52.206;21.006;2023-05-15T13:27:56;9.97;;;9.07;;
16436;SDS011;8328;52.206;21.006;2023-05-15T13:30:23;9.93;;;9.00;;
16436;SDS011;8328;52.206;21.006;2023-05-15T13:32:50;10.70;;;9.60;;
16436;SDS011;8328;52.206;21.006;2023-05-15T13:35:16;10.83;;;9.73;;
16436;SDS011;8328;52.206;21.006;2023-05-15T13:37:42;10.23;;;9.20;;
16436;SDS011;8328;52.206;21.006;2023-05-15T13:40:09;10.10;;;9.10;;
16436;SDS011;8328;52.206;21.006;2023-05-15T13:42:39;9.67;;;8.87;;
16436;SDS011;8328;52.206;21.006;2023-05-15T13:45:09;9.87;;;9.03;;
16436;SDS011;8328;52.206;21.006;2023-05-15T13:47:36;10.40;;;9.40;;
16436;SDS011;8328;52.206;21.006;2023-05-15T13:50:07;10.00;;;9.07;;
16436;SDS011;8328;52.206;21.006;2023-05-15T13:52:34;9.53;;;8.73;;
16436;SDS011;8328;52.206;21.006;2023-05-15T13:55:00;9.73;;;8.77;;
16436;SDS011;8328;52.206;21.006;2023-05-15T13:57:26;9.87;;;8.97;;
16436;SDS011;8328;52.206;21.006;2023-05-15T13:59:51;9.73;;;8.90;;
16436;SDS011;8328;52.206;21.006;2023-05-15T14:02:17;9.00;;;8.20;;
16436;SDS011;8328;52.206;21.006;2023-05-15T14:04:45;9.23;;;8.43;;
16436;SDS011;8328;52.206;21.006;2023-05-15T14:07:11;9.33;;;8.43;;
16436;SDS011;8328;52.206;21.006;2023-05-15T14:09:37;9.30;;;8.40;;
16436;SDS011;8328;52.206;21.006;2023-05-15T14:12:02;9.43;;;8.53;;
16436;SDS011;8328;52.206;21.006;2023-05-15T14:14:28;9.27;;;8.37;;
16436;SDS011;8328;52.206;21.006;2023-05-15T14:16:54;8.87;;;7.77;;
16436;SDS011;8328;52.206;21.006;2023-05-15T14:19:20;8.87;;;8.07;;
16436;SDS011;8328;52.206;21.006;2023-05-15T14:21:45;10.00;;;8.30;;
16436;SDS011;8328;52.206;21.006;2023-05-15T14:24:13;14.87;;;8.10;;
16436;SDS011;8328;52.206;21.006;2023-05-15T14:26:38;9.60;;;8.63;;
16436;SDS011;8328;52.206;21.006;2023-05-15T14:29:04;9.30;;;8.30;;
16436;SDS011;8328;52.206;21.006;2023-05-15T14:31:30;8.60;;;7.80;;
16436;SDS011;8328;52.206;21.006;2023-05-15T14:33:58;8.00;;;7.33;;
16436;SDS011;8328;52.206;21.006;2023-05-15T14:36:24;9.93;;;8.83;;
16436;SDS011;8328;52.206;21.006;2023-05-15T14:38:50;9.53;;;8.63;;
16436;SDS011;8328;52.206;21.006;2023-05-15T14:41:17;13.40;;;11.80;;
16436;SDS011;8328;52.206;21.006;2023-05-15T14:43:42;10.37;;;8.20;;
16436;SDS011;8328;52.206;21.006;2023-05-15T14:46:08;9.73;;;8.73;;
16436;SDS011;8328;52.206;21.006;2023-05-15T14:48:34;10.07;;;9.10;;
16436;SDS011;8328;52.206;21.006;2023-05-15T14:51:00;10.10;;;9.20;;
16436;SDS011;8328;52.206;21.006;2023-05-15T14:53:26;9.70;;;8.80;;
16436;SDS011;8328;52.206;21.006;2023-05-15T14:55:53;9.83;;;8.83;;
16436;SDS011;8328;52.206;21.006;2023-05-15T14:58:19;9.60;;;8.70;;
16436;SDS011;8328;52.206;21.006;2023-05-15T15:00:45;10.27;;;9.27;;
16436;SDS011;8328;52.206;21.006;2023-05-15T15:03:12;11.67;;;9.80;;
16436;SDS011;8328;52.206;21.006;2023-05-15T15:05:38;10.43;;;9.53;;
16436;SDS011;8328;52.206;21.006;2023-05-15T15:08:04;10.07;;;9.17;;
16436;SDS011;8328;52.206;21.006;2023-05-15T15:10:32;10.47;;;9.37;;
16436;SDS011;8328;52.206;21.006;2023-05-15T15:12:59;10.03;;;9.13;;
16436;SDS011;8328;52.206;21.006;2023-05-15T15:15:25;10.77;;;9.30;;
16436;SDS011;8328;52.206;21.006;2023-05-15T15:17:51;10.23;;;9.23;;
16436;SDS011;8328;52.206;21.006;2023-05-15T15:20:18;11.10;;;10.00;;
16436;SDS011;8328;52.206;21.006;2023-05-15T15:22:45;12.53;;;10.50;;
16436;SDS011;8328;52.206;21.006;2023-05-15T15:27:47;10.77;;;9.80;;
16436;SDS011;8328;52.206;21.006;2023-05-15T15:30:13;10.77;;;9.87;;
16436;SDS011;8328;52.206;21.006;2023-05-15T15:32:40;11.27;;;10.03;;
16436;SDS011;8328;52.206;21.006;2023-05-15T15:35:07;12.53;;;11.23;;
16436;SDS011;8328;52.206;21.006;2023-05-15T15:37:33;10.27;;;9.27;;
16436;SDS011;8328;52.206;21.006;2023-05-15T15:40:01;9.13;;;8.33;;
16436;SDS011;8328;52.206;21.006;2023-05-15T15:42:27;9.77;;;7.77;;
16436;SDS011;8328;52.206;21.006;2023-05-15T15:44:53;8.60;;;7.80;;
16436;SDS011;8328;52.206;21.006;2023-05-15T15:47:19;8.80;;;8.00;;
16436;SDS011;8328;52.206;21.006;2023-05-15T15:49:46;8.30;;;7.50;;
16436;SDS011;8328;52.206;21.006;2023-05-15T15:52:11;7.37;;;6.67;;
16436;SDS011;8328;52.206;21.006;2023-05-15T15:54:37;8.07;;;7.27;;
16436;SDS011;8328;52.206;21.006;2023-05-15T15:57:04;8.30;;;6.60;;
16436;SDS011;8328;52.206;21.006;2023-05-15T15:59:30;7.67;;;6.87;;
16436;SDS011;8328;52.206;21.006;2023-05-15T16:01:56;6.90;;;6.30;;
16436;SDS011;8328;52.206;21.006;2023-05-15T16:04:22;7.03;;;6.33;;
16436;SDS011;8328;52.206;21.006;2023-05-15T16:06:47;6.90;;;6.20;;
16436;SDS011;8328;52.206;21.006;2023-05-15T16:09:15;7.80;;;7.00;;
16436;SDS011;8328;52.206;21.006;2023-05-15T16:11:43;8.63;;;6.70;;
16436;SDS011;8328;52.206;21.006;2023-05-15T16:14:10;8.27;;;7.30;;
16436;SDS011;8328;52.206;21.006;2023-05-15T16:16:43;9.37;;;7.10;;
16436;SDS011;8328;52.206;21.006;2023-05-15T16:19:08;8.73;;;7.30;;